Time;durP1;ratioP1;P1;durP2;ratioP2;P2;SDS_P1;SDS_P2;PMS_P1;PMS_P2;Temp;Humidity;BMP_temperature;BMP_pressure;BME280_temperature;BME280_humidity;BME280_pressure;Samples;Min_cycle;Max_cycle;Signal;HPM_P1;HPM_P2
2022/09/18 00:01:53;;;;;;;12.10;2.10;;;;;;;;;;4931068;29;20438;-77
2022/09/18 00:04:20;;;;;;;17.02;3.40;;;;;;;;;;4926933;29;20564;-77
2022/09/18 00:06:46;;;;;;;18.13;3.38;;;;;;;;;;4928450;29;20025;-78
2022/09/18 00:09:14;;;;;;;13.57;2.22;;;;;;;;;;4943458;28;20045;-77
2022/09/18 00:11:42;;;;;;;19.35;2.75;;;;;;;;;;4928520;29;20445;-77
2022/09/18 00:14:09;;;;;;;13.65;2.72;;;;;;;;;;4926343;29;20032;-77
2022/09/18 00:16:35;;;;;;;9.55;2.08;;;;;;;;;;4927736;29;20039;-79
2022/09/18 00:19:02;;;;;;;22.27;2.47;;;;;;;;;;4931752;29;20044;-77
2022/09/18 00:21:30;;;;;;;18.35;2.53;;;;;;;;;;4932880;29;20055;-78
2022/09/18 00:23:57;;;;;;;25.10;3.08;;;;;;;;;;4932494;29;20039;-77
2022/09/18 00:26:24;;;;;;;12.40;2.42;;;;;;;;;;4936990;29;20027;-78
2022/09/18 00:28:51;;;;;;;15.63;2.47;;;;;;;;;;4936617;29;20027;-84
2022/09/18 00:31:24;;;;;;;14.48;2.75;;;;;;;;;;4934398;29;20426;-78
2022/09/18 00:33:50;;;;;;;19.38;2.60;;;;;;;;;;4935235;29;20044;-77
2022/09/18 00:36:19;;;;;;;13.95;2.55;;;;;;;;;;4938662;29;20048;-77
2022/09/18 00:38:46;;;;;;;13.27;3.40;;;;;;;;;;4926222;29;20028;-78
2022/09/18 00:41:26;;;;;;;17.02;2.47;;;;;;;;;;4952665;29;20027;-78
2022/09/18 00:43:55;;;;;;;16.10;3.43;;;;;;;;;;4940999;29;20119;-81
2022/09/18 00:46:24;;;;;;;19.52;3.15;;;;;;;;;;4941776;29;20509;-78
2022/09/18 00:49:04;;;;;;;24.73;3.03;;;;;;;;;;4930398;29;20063;-87
2022/09/18 00:51:33;;;;;;;21.65;2.78;;;;;;;;;;4926756;29;20032;-77
2022/09/18 00:54:14;;;;;;;19.40;2.60;;;;;;;;;;4935683;29;20067;-79
2022/09/18 00:56:40;;;;;;;21.63;3.28;;;;;;;;;;4943948;29;20032;-79
2022/09/18 00:59:08;;;;;;;23.23;3.67;;;;;;;;;;4932997;29;20024;-79
2022/09/18 01:01:34;;;;;;;22.52;3.00;;;;;;;;;;4937488;28;20020;-79
2022/09/18 01:04:00;;;;;;;31.77;3.63;;;;;;;;;;4923854;29;20034;-79
2022/09/18 01:06:45;;;;;;;24.10;2.75;;;;;;;;;;4937244;29;20039;-78
2022/09/18 01:09:31;;;;;;;20.20;2.70;;;;;;;;;;4954330;28;20505;-78
2022/09/18 01:11:57;;;;;;;32.40;4.60;;;;;;;;;;4941132;29;20039;-79
2022/09/18 01:14:31;;;;;;;22.25;3.67;;;;;;;;;;4948401;28;20031;-79
2022/09/18 01:16:57;;;;;;;20.35;3.55;;;;;;;;;;4931703;29;20032;-79
2022/09/18 01:19:23;;;;;;;19.33;3.47;;;;;;;;;;4910898;29;20455;-78
2022/09/18 01:21:55;;;;;;;30.25;3.47;;;;;;;;;;4939702;29;20111;-79
2022/09/18 01:24:40;;;;;;;22.58;3.38;;;;;;;;;;4941392;28;20078;-78
2022/09/18 01:27:08;;;;;;;19.48;3.20;;;;;;;;;;4926366;29;20024;-79
2022/09/18 01:29:43;;;;;;;26.50;4.55;;;;;;;;;;4924664;29;20142;-78
2022/09/18 01:32:20;;;;;;;17.73;3.35;;;;;;;;;;4941818;29;20090;-78
2022/09/18 01:34:52;;;;;;;27.75;4.72;;;;;;;;;;4930303;29;20419;-78
2022/09/18 01:37:37;;;;;;;23.67;3.53;;;;;;;;;;4926754;29;20028;-79
2022/09/18 01:40:32;;;;;;;23.42;3.67;;;;;;;;;;4927928;29;20067;-79
2022/09/18 01:43:00;;;;;;;25.77;3.08;;;;;;;;;;4923181;29;20457;-79
2022/09/18 01:45:29;;;;;;;15.70;3.03;;;;;;;;;;4927399;29;20458;-79
2022/09/18 01:48:00;;;;;;;20.90;3.17;;;;;;;;;;4932677;29;20163;-78
2022/09/18 01:50:28;;;;;;;16.52;3.25;;;;;;;;;;4942951;28;20032;-78
2022/09/18 01:53:17;;;;;;;24.50;4.00;;;;;;;;;;4946773;29;20515;-79
2022/09/18 01:55:46;;;;;;;17.58;3.35;;;;;;;;;;4921500;29;20062;-79
2022/09/18 01:58:16;;;;;;;25.92;3.63;;;;;;;;;;4932972;29;20131;-78
2022/09/18 02:00:45;;;;;;;20.17;3.42;;;;;;;;;;4927232;29;20032;-78
2022/09/18 02:03:14;;;;;;;16.23;2.22;;;;;;;;;;4932977;29;20046;-78
2022/09/18 02:05:45;;;;;;;13.23;2.22;;;;;;;;;;4930408;29;21018;-78
2022/09/18 02:08:20;;;;;;;13.23;2.70;;;;;;;;;;4926954;29;20044;-76
2022/09/18 02:10:51;;;;;;;10.77;1.95;;;;;;;;;;4933324;29;20035;-78
2022/09/18 02:13:20;;;;;;;12.00;2.17;;;;;;;;;;4948825;29;20067;-77
2022/09/18 02:15:48;;;;;;;14.05;2.13;;;;;;;;;;4933041;29;20118;-77
2022/09/18 02:18:17;;;;;;;15.57;2.30;;;;;;;;;;4933266;29;20116;-77
2022/09/18 02:20:44;;;;;;;11.63;1.80;;;;;;;;;;4935809;29;20074;-77
2022/09/18 02:23:11;;;;;;;12.82;2.50;;;;;;;;;;4935696;29;20069;-77
2022/09/18 02:25:43;;;;;;;11.05;2.05;;;;;;;;;;4948850;28;20032;-78
2022/09/18 02:28:10;;;;;;;18.63;2.45;;;;;;;;;;4937781;29;20050;-77
2022/09/18 02:30:38;;;;;;;16.25;1.80;;;;;;;;;;4933475;29;20031;-77
2022/09/18 02:33:07;;;;;;;11.63;2.47;;;;;;;;;;4938389;29;20031;-77
2022/09/18 02:35:39;;;;;;;17.30;2.00;;;;;;;;;;4917738;29;20043;-77
2022/09/18 02:38:26;;;;;;;15.32;2.10;;;;;;;;;;4950379;28;20032;-77
2022/09/18 02:41:12;;;;;;;14.15;2.17;;;;;;;;;;4939943;29;20043;-77
2022/09/18 02:43:39;;;;;;;8.85;1.52;;;;;;;;;;4907907;29;20048;-77
2022/09/18 02:46:43;;;;;;;14.57;1.65;;;;;;;;;;4941143;29;20007;-77
2022/09/18 02:49:09;;;;;;;10.50;2.05;;;;;;;;;;4909038;29;20060;-78
2022/09/18 02:51:43;;;;;;;9.38;1.58;;;;;;;;;;4917869;29;20406;-78
2022/09/18 02:54:11;;;;;;;10.85;1.88;;;;;;;;;;4928261;29;20398;-78
2022/09/18 02:56:37;;;;;;;8.55;2.13;;;;;;;;;;4941616;28;20022;-76
2022/09/18 02:59:22;;;;;;;12.82;2.20;;;;;;;;;;4937954;29;20044;-77
2022/09/18 03:01:48;;;;;;;12.80;2.38;;;;;;;;;;4948151;29;20036;-77
2022/09/18 03:04:18;;;;;;;12.80;2.45;;;;;;;;;;4952842;29;20044;-78
2022/09/18 03:06:44;;;;;;;11.35;2.03;;;;;;;;;;4939135;29;20066;-78
2022/09/18 03:09:10;;;;;;;9.25;2.03;;;;;;;;;;4933907;29;20419;-79
2022/09/18 03:11:36;;;;;;;12.30;2.50;;;;;;;;;;4934349;29;20063;-78
2022/09/18 03:14:03;;;;;;;16.65;2.30;;;;;;;;;;4946748;28;20059;-78
2022/09/18 03:16:29;;;;;;;15.13;2.45;;;;;;;;;;4931689;29;20062;-76
2022/09/18 03:18:56;;;;;;;13.95;2.40;;;;;;;;;;4929167;29;20036;-77
2022/09/18 03:21:22;;;;;;;16.10;2.63;;;;;;;;;;4928585;29;20035;-79
2022/09/18 03:23:48;;;;;;;13.68;1.95;;;;;;;;;;4929132;29;20039;-79
2022/09/18 03:26:14;;;;;;;14.48;2.25;;;;;;;;;;4924941;29;20023;-80
2022/09/18 03:28:40;;;;;;;11.18;1.95;;;;;;;;;;4928528;29;20083;-79
2022/09/18 03:31:06;;;;;;;14.55;2.28;;;;;;;;;;4921501;29;20040;-79
2022/09/18 03:33:33;;;;;;;16.83;2.60;;;;;;;;;;4923512;29;20035;-79
2022/09/18 03:35:59;;;;;;;11.45;2.13;;;;;;;;;;4910453;29;20060;-79
2022/09/18 03:38:25;;;;;;;13.05;3.38;;;;;;;;;;4917611;29;20119;-79
2022/09/18 03:40:51;;;;;;;14.15;2.13;;;;;;;;;;4930437;29;20123;-79
2022/09/18 03:43:17;;;;;;;15.88;2.55;;;;;;;;;;4914994;29;20493;-79
2022/09/18 03:45:43;;;;;;;13.20;2.60;;;;;;;;;;4913411;29;20056;-78
2022/09/18 03:48:09;;;;;;;12.05;2.25;;;;;;;;;;4923819;29;20064;-78
2022/09/18 03:50:35;;;;;;;16.35;2.38;;;;;;;;;;4925869;29;20032;-78
2022/09/18 03:53:01;;;;;;;13.43;2.60;;;;;;;;;;4909886;29;20027;-78
2022/09/18 03:55:27;;;;;;;13.55;3.17;;;;;;;;;;4913956;29;20105;-78
2022/09/18 03:58:12;;;;;;;12.68;2.47;;;;;;;;;;4942268;29;20802;-78
2022/09/18 04:00:38;;;;;;;17.52;3.15;;;;;;;;;;4929079;29;20024;-78
2022/09/18 04:03:05;;;;;;;11.20;2.45;;;;;;;;;;4931200;29;20047;-79
2022/09/18 04:05:31;;;;;;;13.88;3.33;;;;;;;;;;4933344;29;20078;-79
2022/09/18 04:07:58;;;;;;;14.00;2.42;;;;;;;;;;4937446;29;20393;-79
2022/09/18 04:10:25;;;;;;;16.98;2.75;;;;;;;;;;4940861;29;20042;-78
2022/09/18 04:12:51;;;;;;;17.83;2.28;;;;;;;;;;4942220;29;20099;-78
2022/09/18 04:15:18;;;;;;;20.55;2.38;;;;;;;;;;4942951;29;20103;-78
2022/09/18 04:17:44;;;;;;;19.08;3.30;;;;;;;;;;4929100;29;20058;-77
2022/09/18 04:20:10;;;;;;;22.70;4.25;;;;;;;;;;4954620;28;20074;-77
2022/09/18 04:22:36;;;;;;;14.75;3.22;;;;;;;;;;4935233;29;20075;-77
2022/09/18 04:25:03;;;;;;;21.50;3.65;;;;;;;;;;4936742;29;20074;-77
2022/09/18 04:27:29;;;;;;;21.88;2.90;;;;;;;;;;4937790;29;20115;-78
2022/09/18 04:29:55;;;;;;;13.02;2.42;;;;;;;;;;4949986;29;20040;-79
2022/09/18 04:32:21;;;;;;;11.68;3.17;;;;;;;;;;4953201;28;20024;-79
2022/09/18 04:34:47;;;;;;;12.13;3.28;;;;;;;;;;4947534;29;20054;-78
2022/09/18 04:37:13;;;;;;;10.95;2.90;;;;;;;;;;4948863;28;20411;-79
2022/09/18 04:39:39;;;;;;;16.23;3.38;;;;;;;;;;4947374;28;20552;-78
2022/09/18 04:42:05;;;;;;;19.65;3.78;;;;;;;;;;4908912;29;20047;-79
2022/09/18 04:44:31;;;;;;;18.88;3.90;;;;;;;;;;4926092;29;20046;-78
2022/09/18 04:46:57;;;;;;;18.17;3.25;;;;;;;;;;4915253;29;20130;-77
2022/09/18 04:49:23;;;;;;;18.77;2.85;;;;;;;;;;4943854;28;20075;-79
2022/09/18 04:51:49;;;;;;;15.02;2.38;;;;;;;;;;4929415;29;20030;-79
2022/09/18 04:54:15;;;;;;;13.13;2.78;;;;;;;;;;4926450;29;20032;-79
2022/09/18 04:56:41;;;;;;;13.18;1.80;;;;;;;;;;4929078;29;20035;-79
2022/09/18 04:59:07;;;;;;;12.13;2.30;;;;;;;;;;4928164;29;20182;-79
2022/09/18 05:01:33;;;;;;;17.60;2.22;;;;;;;;;;4924013;29;20440;-79
2022/09/18 05:03:59;;;;;;;7.88;1.55;;;;;;;;;;4927309;29;20073;-79
2022/09/18 05:06:26;;;;;;;11.27;2.58;;;;;;;;;;4932504;29;20036;-79
2022/09/18 05:08:52;;;;;;;10.93;2.13;;;;;;;;;;4911069;29;20028;-79
2022/09/18 05:11:18;;;;;;;11.68;1.73;;;;;;;;;;4927037;29;20100;-78
2022/09/18 05:13:47;;;;;;;10.32;1.88;;;;;;;;;;4929516;29;20087;-79
2022/09/18 05:16:13;;;;;;;10.65;2.00;;;;;;;;;;4928042;29;20129;-79
2022/09/18 05:18:39;;;;;;;17.45;2.15;;;;;;;;;;4912610;29;20668;-79
2022/09/18 05:21:05;;;;;;;10.07;2.25;;;;;;;;;;4943103;29;20568;-79
2022/09/18 05:23:33;;;;;;;17.83;2.08;;;;;;;;;;4929781;29;20040;-79
2022/09/18 05:25:59;;;;;;;17.40;2.10;;;;;;;;;;4941826;29;20334;-79
2022/09/18 05:28:25;;;;;;;8.02;1.80;;;;;;;;;;4931509;29;20028;-79
2022/09/18 05:30:51;;;;;;;13.55;2.47;;;;;;;;;;4939959;29;20394;-79
2022/09/18 05:33:17;;;;;;;8.07;1.80;;;;;;;;;;4911371;29;20490;-78
2022/09/18 05:35:43;;;;;;;10.13;1.95;;;;;;;;;;4940436;28;20086;-79
2022/09/18 05:38:10;;;;;;;16.77;2.50;;;;;;;;;;4943780;28;20040;-79
2022/09/18 05:40:37;;;;;;;11.73;2.78;;;;;;;;;;4927765;29;20042;-79
2022/09/18 05:43:04;;;;;;;7.55;1.90;;;;;;;;;;4928663;29;20054;-78
2022/09/18 05:45:30;;;;;;;16.17;2.85;;;;;;;;;;4923766;29;20060;-79
2022/09/18 05:47:57;;;;;;;13.55;2.55;;;;;;;;;;4927074;29;20123;-79
2022/09/18 05:50:24;;;;;;;11.75;3.15;;;;;;;;;;4925243;29;20047;-79
2022/09/18 05:53:06;;;;;;;9.07;2.35;;;;;;;;;;4942635;28;20042;-79
2022/09/18 05:55:33;;;;;;;10.98;2.42;;;;;;;;;;4927821;29;20039;-79
2022/09/18 05:58:00;;;;;;;14.40;2.50;;;;;;;;;;4929314;29;20035;-79
2022/09/18 06:00:27;;;;;;;13.68;2.97;;;;;;;;;;4939014;28;20035;-79
2022/09/18 06:03:01;;;;;;;16.23;2.50;;;;;;;;;;4932284;29;20027;-78
2022/09/18 06:05:28;;;;;;;14.27;2.42;;;;;;;;;;4940169;28;20197;-79
2022/09/18 06:07:54;;;;;;;10.48;2.78;;;;;;;;;;4926709;29;20474;-79
2022/09/18 06:10:22;;;;;;;16.60;2.30;;;;;;;;;;4936190;29;20034;-80
2022/09/18 06:12:48;;;;;;;9.50;1.88;;;;;;;;;;4920381;29;20336;-79
2022/09/18 06:15:14;;;;;;;15.40;2.13;;;;;;;;;;4930873;29;20050;-79
2022/09/18 06:17:40;;;;;;;9.57;2.08;;;;;;;;;;4910672;29;20028;-79
2022/09/18 06:20:07;;;;;;;10.18;2.65;;;;;;;;;;4944266;28;20482;-79
2022/09/18 06:22:34;;;;;;;10.85;2.17;;;;;;;;;;4948868;28;20028;-79
2022/09/18 06:25:00;;;;;;;8.30;1.85;;;;;;;;;;4937549;29;20032;-79
2022/09/18 06:27:26;;;;;;;6.88;1.40;;;;;;;;;;4954794;29;20027;-79
2022/09/18 06:29:53;;;;;;;9.32;2.03;;;;;;;;;;4953220;29;20008;-79
2022/09/18 06:32:19;;;;;;;17.17;2.30;;;;;;;;;;4940163;29;20020;-80
2022/09/18 06:34:45;;;;;;;13.85;2.90;;;;;;;;;;4937204;29;20555;-79
2022/09/18 06:37:12;;;;;;;6.85;1.35;;;;;;;;;;4938042;28;20039;-79
2022/09/18 06:39:38;;;;;;;10.80;1.90;;;;;;;;;;4953080;29;20040;-78
2022/09/18 06:42:05;;;;;;;10.32;1.70;;;;;;;;;;4944188;28;20024;-79
2022/09/18 06:44:31;;;;;;;9.35;1.50;;;;;;;;;;4922420;29;20437;-79
2022/09/18 06:46:57;;;;;;;9.27;1.48;;;;;;;;;;4930935;28;20063;-78
2022/09/18 06:49:23;;;;;;;12.73;2.05;;;;;;;;;;4949386;28;20044;-78
2022/09/18 06:51:49;;;;;;;13.60;2.90;;;;;;;;;;4932169;29;20017;-78
2022/09/18 06:54:15;;;;;;;7.20;1.45;;;;;;;;;;4943502;29;20082;-79
2022/09/18 06:56:42;;;;;;;6.65;1.38;;;;;;;;;;4943079;29;20612;-79
2022/09/18 06:59:08;;;;;;;10.02;1.50;;;;;;;;;;4940763;29;20059;-78
2022/09/18 07:01:34;;;;;;;8.35;1.33;;;;;;;;;;4930025;29;20023;-78
2022/09/18 07:04:00;;;;;;;8.68;1.50;;;;;;;;;;4937106;29;20039;-79
2022/09/18 07:06:26;;;;;;;11.15;1.63;;;;;;;;;;4946373;29;20035;-78
2022/09/18 07:08:52;;;;;;;12.68;1.60;;;;;;;;;;4961205;28;20563;-79
2022/09/18 07:11:19;;;;;;;11.18;1.65;;;;;;;;;;4946376;29;20020;-79
2022/09/18 07:13:46;;;;;;;8.57;1.30;;;;;;;;;;4938036;29;20032;-78
2022/09/18 07:16:12;;;;;;;16.20;1.65;;;;;;;;;;4928852;28;20497;-79
2022/09/18 07:18:38;;;;;;;13.35;1.42;;;;;;;;;;4922595;29;20064;-79
2022/09/18 07:21:04;;;;;;;12.35;1.70;;;;;;;;;;4940269;29;20119;-79
2022/09/18 07:23:32;;;;;;;11.73;1.30;;;;;;;;;;4942732;29;20036;-78
2022/09/18 07:26:01;;;;;;;11.48;1.83;;;;;;;;;;4939909;29;20524;-79
2022/09/18 07:28:27;;;;;;;9.40;1.17;;;;;;;;;;4918126;29;20115;-79
2022/09/18 07:30:54;;;;;;;10.52;1.60;;;;;;;;;;4917631;29;20036;-77
2022/09/18 07:33:20;;;;;;;17.25;2.10;;;;;;;;;;4936944;29;20035;-79
2022/09/18 07:35:46;;;;;;;12.32;1.75;;;;;;;;;;4950547;28;20061;-79
2022/09/18 07:38:12;;;;;;;9.75;1.45;;;;;;;;;;4950550;28;20028;-79
2022/09/18 07:40:41;;;;;;;6.72;1.38;;;;;;;;;;4947189;28;20118;-80
2022/09/18 07:43:09;;;;;;;9.05;1.30;;;;;;;;;;4951931;28;20062;-80
2022/09/18 07:45:35;;;;;;;7.68;1.10;;;;;;;;;;4935199;29;20128;-79
2022/09/18 07:48:02;;;;;;;7.68;1.30;;;;;;;;;;4917838;29;20046;-78
2022/09/18 07:50:28;;;;;;;9.88;1.48;;;;;;;;;;4933331;29;20086;-77
2022/09/18 07:52:56;;;;;;;8.32;1.27;;;;;;;;;;4934888;29;20060;-79
2022/09/18 07:55:23;;;;;;;11.48;1.40;;;;;;;;;;4950482;28;20370;-78
2022/09/18 07:57:53;;;;;;;6.03;1.50;;;;;;;;;;4937736;29;20035;-77
2022/09/18 08:00:19;;;;;;;5.63;1.50;;;;;;;;;;4951240;28;20040;-79
2022/09/18 08:02:45;;;;;;;3.92;1.02;;;;;;;;;;4940565;28;20055;-78
2022/09/18 08:05:11;;;;;;;7.13;1.20;;;;;;;;;;4934579;29;20036;-80
2022/09/18 08:07:37;;;;;;;7.30;1.05;;;;;;;;;;4917401;29;20108;-79
2022/09/18 08:10:04;;;;;;;8.93;1.45;;;;;;;;;;4937062;29;20047;-80
2022/09/18 08:12:30;;;;;;;3.28;1.27;;;;;;;;;;4938885;29;20008;-80
2022/09/18 08:14:57;;;;;;;6.78;1.27;;;;;;;;;;4939738;29;20035;-79
2022/09/18 08:17:23;;;;;;;4.53;0.90;;;;;;;;;;4942429;29;20054;-78
2022/09/18 08:19:49;;;;;;;4.63;1.00;;;;;;;;;;4924966;29;20130;-77
2022/09/18 08:22:15;;;;;;;7.25;1.60;;;;;;;;;;4940865;29;20507;-76
2022/09/18 08:24:41;;;;;;;8.82;1.55;;;;;;;;;;4942323;29;20102;-78
2022/09/18 08:27:07;;;;;;;8.85;1.25;;;;;;;;;;4943333;29;20028;-77
2022/09/18 08:29:33;;;;;;;5.63;1.10;;;;;;;;;;4941746;29;20031;-78
2022/09/18 08:31:59;;;;;;;6.78;1.30;;;;;;;;;;4951254;29;20019;-78
2022/09/18 08:34:26;;;;;;;5.25;1.58;;;;;;;;;;4940010;29;20508;-79
2022/09/18 08:36:52;;;;;;;12.38;1.60;;;;;;;;;;4941744;29;20032;-78
2022/09/18 08:39:18;;;;;;;6.25;1.60;;;;;;;;;;4922603;29;20047;-78
2022/09/18 08:41:44;;;;;;;8.93;1.40;;;;;;;;;;4922207;29;20424;-77
2022/09/18 08:44:17;;;;;;;10.80;1.50;;;;;;;;;;4953975;28;20119;-78
2022/09/18 08:46:48;;;;;;;14.13;1.77;;;;;;;;;;4938203;29;20051;-78
2022/09/18 08:49:20;;;;;;;8.23;1.63;;;;;;;;;;4937753;29;20098;-78
2022/09/18 08:51:49;;;;;;;13.18;2.00;;;;;;;;;;4937490;29;20012;-78
2022/09/18 08:54:19;;;;;;;9.82;2.97;;;;;;;;;;4938055;29;20030;-78
2022/09/18 08:56:45;;;;;;;9.88;1.48;;;;;;;;;;4940057;29;20024;-78
2022/09/18 08:59:16;;;;;;;7.68;1.50;;;;;;;;;;4938485;29;20150;-78
2022/09/18 09:02:14;;;;;;;11.20;1.52;;;;;;;;;;4933618;29;20020;-80
2022/09/18 09:04:40;;;;;;;11.68;2.05;;;;;;;;;;4910602;29;20043;-80
2022/09/18 09:07:35;;;;;;;12.25;1.42;;;;;;;;;;4934933;29;20404;-77
2022/09/18 09:10:22;;;;;;;8.60;1.50;;;;;;;;;;4898933;29;20541;-78
2022/09/18 09:12:55;;;;;;;9.98;1.63;;;;;;;;;;4931998;29;20023;-78
2022/09/18 09:15:24;;;;;;;9.63;1.50;;;;;;;;;;4929252;29;20043;-80
2022/09/18 09:18:04;;;;;;;11.25;1.80;;;;;;;;;;4926436;29;20090;-79
2022/09/18 09:20:33;;;;;;;11.40;1.60;;;;;;;;;;4929318;29;20155;-78
2022/09/18 09:23:02;;;;;;;8.95;1.40;;;;;;;;;;4933548;29;20032;-79
2022/09/18 09:25:37;;;;;;;10.50;1.65;;;;;;;;;;4931370;29;20075;-78
2022/09/18 09:28:10;;;;;;;8.63;1.10;;;;;;;;;;4943107;28;20034;-76
2022/09/18 09:30:37;;;;;;;7.90;1.65;;;;;;;;;;4929022;29;20521;-78
2022/09/18 09:33:14;;;;;;;12.00;1.92;;;;;;;;;;4930121;29;20043;-78
2022/09/18 09:35:45;;;;;;;8.13;1.80;;;;;;;;;;4929459;29;20023;-78
2022/09/18 09:38:34;;;;;;;10.88;1.85;;;;;;;;;;4941683;28;20059;-78
2022/09/18 09:41:13;;;;;;;10.18;1.42;;;;;;;;;;4921039;29;20040;-78
2022/09/18 09:43:46;;;;;;;12.43;1.70;;;;;;;;;;4930086;29;20051;-78
2022/09/18 09:46:22;;;;;;;8.63;1.17;;;;;;;;;;4920337;29;20080;-79
2022/09/18 09:49:02;;;;;;;9.68;1.60;;;;;;;;;;4924489;29;20110;-77
2022/09/18 09:51:47;;;;;;;7.50;1.43;;;;;;;;;;4926554;29;20036;-77
2022/09/18 09:54:13;;;;;;;11.07;2.20;;;;;;;;;;4931438;28;20071;-77
2022/09/18 09:56:44;;;;;;;12.77;1.60;;;;;;;;;;4934343;29;20090;-78
2022/09/18 09:59:31;;;;;;;6.60;1.55;;;;;;;;;;4937411;29;20031;-77
2022/09/18 10:02:16;;;;;;;8.27;2.28;;;;;;;;;;4935483;29;20047;-78
2022/09/18 10:04:46;;;;;;;7.50;2.00;;;;;;;;;;4939366;29;20023;-78
2022/09/18 10:07:12;;;;;;;9.05;1.80;;;;;;;;;;4942942;29;20122;-79
2022/09/18 10:09:45;;;;;;;9.25;1.33;;;;;;;;;;4960406;29;20035;-79
2022/09/18 10:12:26;;;;;;;12.40;1.85;;;;;;;;;;4944048;29;20031;-80
2022/09/18 10:14:54;;;;;;;11.88;2.35;;;;;;;;;;4945353;29;20036;-79
2022/09/18 10:17:21;;;;;;;11.10;2.08;;;;;;;;;;4943427;29;20020;-78
2022/09/18 10:19:47;;;;;;;13.75;2.30;;;;;;;;;;4940635;29;20032;-78
2022/09/18 10:22:16;;;;;;;7.22;1.70;;;;;;;;;;4935321;29;20035;-81
2022/09/18 10:24:45;;;;;;;10.73;1.52;;;;;;;;;;4953574;28;20119;-80
2022/09/18 10:27:13;;;;;;;8.70;1.25;;;;;;;;;;4939590;29;20484;-80
2022/09/18 10:29:39;;;;;;;8.15;1.40;;;;;;;;;;4955205;28;21025;-78
2022/09/18 10:32:06;;;;;;;7.38;1.60;;;;;;;;;;4939725;29;20040;-79
2022/09/18 10:34:46;;;;;;;8.73;1.85;;;;;;;;;;4921364;29;20036;-80
2022/09/18 10:37:15;;;;;;;12.85;1.98;;;;;;;;;;4954283;29;20035;-79
2022/09/18 10:39:49;;;;;;;12.40;1.80;;;;;;;;;;4935902;29;20039;-80
2022/09/18 10:42:17;;;;;;;13.02;2.30;;;;;;;;;;4935199;29;20039;-81
2022/09/18 10:44:47;;;;;;;13.88;1.85;;;;;;;;;;4932715;29;20139;-80
2022/09/18 10:47:19;;;;;;;10.57;2.50;;;;;;;;;;4935879;29;20102;-79
2022/09/18 10:49:55;;;;;;;15.38;2.55;;;;;;;;;;4934709;29;20083;-81
2022/09/18 10:52:27;;;;;;;16.02;1.80;;;;;;;;;;4935348;29;20472;-84
2022/09/18 10:55:01;;;;;;;12.35;1.63;;;;;;;;;;4929722;29;20032;-79
2022/09/18 10:57:32;;;;;;;11.65;1.70;;;;;;;;;;4933754;29;20036;-80
2022/09/18 10:59:58;;;;;;;;;;;;;;;;;;4932382;29;20028;-81
2022/09/18 11:02:25;;;;;;;13.90;2.85;;;;;;;;;;4932078;29;19918;-82
2022/09/18 11:04:52;;;;;;;10.95;1.50;;;;;;;;;;4930102;29;20052;-79
2022/09/18 11:07:18;;;;;;;11.27;1.48;;;;;;;;;;4948174;28;20028;-79
2022/09/18 11:09:45;;;;;;;8.15;1.40;;;;;;;;;;4930205;29;20127;-79
2022/09/18 11:12:16;;;;;;;8.25;1.10;;;;;;;;;;4931348;29;20036;-81
2022/09/18 11:14:45;;;;;;;7.13;1.30;;;;;;;;;;4932175;29;20119;-77
2022/09/18 11:17:19;;;;;;;4.53;0.93;;;;;;;;;;4932602;29;20036;-79
2022/09/18 11:19:49;;;;;;;6.93;1.13;;;;;;;;;;4932024;29;20032;-79
2022/09/18 11:22:41;;;;;;;5.60;2.22;;;;;;;;;;4929287;29;20493;-80
2022/09/18 11:25:13;;;;;;;9.93;2.50;;;;;;;;;;4927364;29;20453;-78
2022/09/18 11:27:49;;;;;;;8.52;1.95;;;;;;;;;;4933595;29;20024;-79
2022/09/18 11:30:18;;;;;;;7.50;2.22;;;;;;;;;;4931479;29;20036;-78
2022/09/18 11:32:45;;;;;;;5.25;1.60;;;;;;;;;;4922417;29;20039;-79
2022/09/18 11:35:19;;;;;;;6.50;1.75;;;;;;;;;;4951071;28;20019;-79
2022/09/18 11:37:52;;;;;;;7.15;1.25;;;;;;;;;;4940256;29;20025;-79
2022/09/18 11:40:21;;;;;;;4.80;1.00;;;;;;;;;;4934470;29;20081;-79
2022/09/18 11:42:48;;;;;;;7.22;1.10;;;;;;;;;;4940181;29;20438;-80
2022/09/18 11:45:33;;;;;;;7.72;1.90;;;;;;;;;;4933294;29;20129;-78
2022/09/18 11:48:17;;;;;;;5.07;1.20;;;;;;;;;;4940152;29;20055;-80
2022/09/18 11:50:44;;;;;;;9.55;1.35;;;;;;;;;;4941161;29;20027;-78
2022/09/18 11:53:21;;;;;;;2.45;0.82;;;;;;;;;;4941784;29;20047;-79
2022/09/18 11:55:55;;;;;;;5.60;1.25;;;;;;;;;;4942820;29;20028;-79
2022/09/18 11:58:24;;;;;;;9.73;1.55;;;;;;;;;;4945039;29;20043;-79
2022/09/18 12:00:53;;;;;;;6.82;1.25;;;;;;;;;;4938551;29;20080;-77
2022/09/18 12:03:26;;;;;;;6.35;0.90;;;;;;;;;;4942243;29;20036;-78
2022/09/18 12:05:54;;;;;;;6.60;1.13;;;;;;;;;;4938566;29;20035;-76
2022/09/18 12:08:39;;;;;;;6.28;1.15;;;;;;;;;;4935747;29;20074;-78
2022/09/18 12:11:08;;;;;;;6.38;1.40;;;;;;;;;;4934591;29;20066;-77
2022/09/18 12:13:40;;;;;;;9.15;1.48;;;;;;;;;;4940334;29;20036;-79
2022/09/18 12:16:19;;;;;;;8.02;1.52;;;;;;;;;;4939501;29;20028;-81
2022/09/18 12:18:55;;;;;;;12.65;1.90;;;;;;;;;;4939909;29;20026;-86
2022/09/18 12:21:24;;;;;;;7.18;1.60;;;;;;;;;;4937684;29;20056;-88
2022/09/18 12:23:50;;;;;;;13.07;1.73;;;;;;;;;;4933755;29;20114;-86
2022/09/18 12:26:32;;;;;;;11.23;1.88;;;;;;;;;;4955617;28;20078;-86
2022/09/18 12:29:16;;;;;;;9.38;1.48;;;;;;;;;;4949613;28;20088;-87
2022/09/18 12:31:45;;;;;;;8.35;1.50;;;;;;;;;;4959384;28;20123;-85
2022/09/18 12:34:11;;;;;;;10.05;1.40;;;;;;;;;;4947254;29;20039;-88
2022/09/18 12:36:43;;;;;;;7.28;1.52;;;;;;;;;;4945166;29;20035;-87
2022/09/18 12:39:12;;;;;;;12.57;1.90;;;;;;;;;;4938371;29;20024;-82
2022/09/18 12:41:46;;;;;;;16.38;1.90;;;;;;;;;;4947033;29;20047;-85
2022/09/18 12:44:31;;;;;;;11.73;1.70;;;;;;;;;;4940442;29;20548;-81
2022/09/18 12:47:16;;;;;;;12.98;1.90;;;;;;;;;;4936227;29;20493;-88
2022/09/18 12:49:56;;;;;;;10.85;1.48;;;;;;;;;;4939951;29;20135;-84
2022/09/18 12:52:22;;;;;;;7.37;1.30;;;;;;;;;;4935231;29;20007;-86
2022/09/18 12:54:51;;;;;;;9.07;1.52;;;;;;;;;;4935621;29;20066;-90
2022/09/18 12:57:20;;;;;;;9.25;1.60;;;;;;;;;;4949166;29;20058;-86
2022/09/18 13:00:08;;;;;;;10.27;1.73;;;;;;;;;;4927536;29;20126;-83
2022/09/18 13:02:37;;;;;;;11.65;1.80;;;;;;;;;;4930887;29;20493;-86
2022/09/18 13:05:12;;;;;;;10.95;2.13;;;;;;;;;;4927912;29;20028;-88
2022/09/18 13:07:45;;;;;;;13.98;1.77;;;;;;;;;;4912272;29;20039;-89
2022/09/18 13:10:21;;;;;;;8.95;2.20;;;;;;;;;;4920564;29;20762;-89
2022/09/18 13:12:57;;;;;;;13.57;1.85;;;;;;;;;;4902497;29;20040;-86
2022/09/18 13:15:25;;;;;;;13.57;2.10;;;;;;;;;;4916315;29;20111;-87
2022/09/18 13:17:54;;;;;;;13.30;1.55;;;;;;;;;;4910061;29;20015;-86
2022/09/18 13:20:43;;;;;;;8.30;1.40;;;;;;;;;;4915655;29;20060;-90
2022/09/18 13:23:30;;;;;;;9.43;1.92;;;;;;;;;;4927507;29;20055;-88
2022/09/18 13:25:57;;;;;;;10.05;1.83;;;;;;;;;;4934077;29;20036;-91
2022/09/18 13:28:23;;;;;;;8.68;1.58;;;;;;;;;;4941894;29;20512;-91
2022/09/18 13:31:09;;;;;;;6.75;1.85;;;;;;;;;;4929767;29;20027;-87
2022/09/18 13:33:35;;;;;;;10.15;1.30;;;;;;;;;;4915426;29;20075;-92
2022/09/18 13:36:04;;;;;;;11.90;1.83;;;;;;;;;;4937725;29;20044;-92
2022/09/18 13:38:30;;;;;;;6.05;1.52;;;;;;;;;;4932449;29;20173;-93
2022/09/18 13:41:04;;;;;;;9.05;1.70;;;;;;;;;;4910647;29;20063;-88
2022/09/18 13:43:30;;;;;;;7.93;1.63;;;;;;;;;;4950732;28;20039;-88
2022/09/18 13:45:58;;;;;;;10.73;1.85;;;;;;;;;;4932982;29;20031;-88
2022/09/18 13:48:28;;;;;;;9.40;1.55;;;;;;;;;;4941534;29;20045;-89
2022/09/18 13:50:54;;;;;;;9.45;1.88;;;;;;;;;;4942362;28;20028;-88
2022/09/18 13:53:33;;;;;;;6.35;1.55;;;;;;;;;;4959712;28;20030;-89
2022/09/18 13:55:59;;;;;;;7.53;1.48;;;;;;;;;;4939831;29;20023;-91
2022/09/18 13:58:32;;;;;;;10.85;2.67;;;;;;;;;;4922652;28;20035;-88
2022/09/18 14:00:59;;;;;;;9.65;1.70;;;;;;;;;;4920489;29;20098;-88
2022/09/18 14:03:25;;;;;;;10.23;1.85;;;;;;;;;;4937087;28;20517;-87
2022/09/18 14:05:51;;;;;;;7.65;1.70;;;;;;;;;;4939554;28;20031;-84
2022/09/18 14:08:21;;;;;;;14.05;2.03;;;;;;;;;;4937047;28;20027;-85
2022/09/18 14:10:47;;;;;;;13.52;2.25;;;;;;;;;;4929019;29;20674;-87
2022/09/18 14:13:23;;;;;;;14.65;2.05;;;;;;;;;;4930240;28;20073;-83
2022/09/18 14:15:52;;;;;;;10.35;2.00;;;;;;;;;;4931134;28;20111;-85
2022/09/18 14:18:23;;;;;;;7.68;2.20;;;;;;;;;;4937422;29;20441;-86
2022/09/18 14:20:51;;;;;;;17.95;3.72;;;;;;;;;;4931775;29;20080;-89
2022/09/18 14:23:35;;;;;;;13.73;3.08;;;;;;;;;;4931698;29;20028;-90
2022/09/18 14:26:08;;;;;;;14.27;3.00;;;;;;;;;;4929469;29;20039;-85
2022/09/18 14:28:35;;;;;;;10.85;2.33;;;;;;;;;;4923848;29;20059;-87
2022/09/18 14:31:39;;;;;;;9.85;1.63;;;;;;;;;;4905559;29;20059;-89
2022/09/18 14:34:17;;;;;;;6.18;1.60;;;;;;;;;;4892753;29;20108;-83
2022/09/18 14:36:44;;;;;;;8.10;1.70;;;;;;;;;;4880026;29;20039;-88
2022/09/18 14:39:28;;;;;;;7.22;1.50;;;;;;;;;;4900202;29;20040;-88
2022/09/18 14:41:59;;;;;;;10.18;2.13;;;;;;;;;;4956803;28;20036;-84
2022/09/18 14:44:26;;;;;;;14.65;2.60;;;;;;;;;;4949599;28;20032;-87
2022/09/18 14:46:54;;;;;;;11.32;1.92;;;;;;;;;;4946696;29;20008;-86
2022/09/18 14:49:34;;;;;;;12.40;2.17;;;;;;;;;;4943337;29;20091;-84
2022/09/18 14:52:00;;;;;;;7.78;1.90;;;;;;;;;;4946652;29;20139;-85
2022/09/18 14:54:27;;;;;;;9.43;1.40;;;;;;;;;;4938912;29;20108;-86